Modelo, Brazil
Current Conditions -  °F | °C
As of 12:00 AM on Saturday 22 Nov 2014 (Local Time) from SBCH Reporting Station
Thunderstorm Thunderstorm  
Wind Chill: 68°   Ceiling: 9000
Heat Index: 68°   Visibility: 3mi
Dew Point: 68°   Wind: 9mph
Humidity: 100%   Direction: 40°NE
Pressure: NA   Gusts: NA
Location:  26.78°S, 53.06°W
Report Text: SBCH 220200Z 04008KT 5000 -TSRA SCT020 FEW040CB OVC090 20/20 Q1014
Loading
Personal Weather Stations






























Interactive Weather Map New forecast layout! Learn more

10-Day Weather Forecast

Advertisements
Track Severe Weather on mobile